< < Back
Terminal Aerodrome Forecast


Current Version              Previous Versions:   1  2  3  4  5  6  7  8  9  

Terminal Aerodrome Forecast

723
FTUS44 KBMX 281120
TAFMGM
TAF
KMGM 281120Z 2812/2912 12005KT P6SM BKN180
     FM281600 14008KT P6SM SCT045 BKN100
     FM290200 05003KT P6SM SCT250=



Latest METAR

932
SAUS80 KWBC 290200 RRA
MTRMGM
METAR KMGM 290153Z 29003KT 10SM CLR 26/21 A3007 RMK AO2 SLP179
T02560206


USA.gov is the U.S. government's official web portal to all federal, state and local government web resources and services.